Etusivu
METAR-TAF:

METAR-TAF

Lentoasemat :

Den Helder, Alankomaat

Leveyspiiri: 52-55N, Pituuspiiri: 004-47E, korkeus merenpinnasta: 0 m

Tämänhetkinen sää

Tämä raportti tehtiin 31 minuuttia sitten, kello 05.28 UTC
Tuuli 4 kn kaakosta
Lämpötila 2°C
Kosteus 87%
Ilmanpaine 1036 hPa
Näkyvyys 10 km tai enemmän
ei pilviä alle 1500 m:ssä eikä cumulonimbus-pilviä

METAR: EHKD 240528Z AUTO VRB02KT 9999 NCD 02/00 Q1036 BLU 14004KT CAVOK

Aika: 06:59 (05:59 UTC)

Sääennuste

Tämä raportti tehtiin 4 tuntia ja 33 minuuttia sitten, kello 01.26 UTC
Ennuste voimassa 24. päivästä klo 02 UTC - 24. päivään klo 14 UTC
Tuuli 3 kn kaakosta
Näkyvyys 10 km tai enemmän
ei pilviä alle 1500 m:ssä eikä cumulonimbus-pilviä

TAF: EHKD 240126Z 2402/2414 14003KT CAVOK

Säähavainnot ja -ennusteet yli 4000 lentoasemalta (METAR- ja TAF-raportit).

Käytössä olevat sääasemat on merkitty karttaan keltaisilla ja punaisilla pisteillä.

Aseta hiiri pisteen päälle nähdäksesi sääaseman nimen.

Klikkaa sitten nähdäksesi säähavainnot ja -ennusteet.

Kartan vaihtaminen: klikkaa mustalla rastilla varustettuja vihreitä pisteitä, niin voit zoomata sisään; viivalla varustettua vihreää pistettä, niin voit zoomata ulos tai vihreitä nuolia, niin pääset viereisille kartoille.


METAR-TAF: